WATO2: N. Canadian R., Watonga, OK

Data processed at Wed May 22 2019 23:50


All information presented herein is the property of the government of the United States of America and may be revised or deleted at any time without prior notice.
Dissemination of this information without the expressed written consent of the Public Affairs Office, Tulsa District U.S. Army Corps of Engineers is strictly prohibited.
These data are gathered electronically and, as presented, have not undergone any form of quality control. These data are not guaranteed to be valid or correct.
Go to home page.
Go to station list.
Go to home page.

Upstream stations:

Downstream station:
Previous Day
Next Day
Current Day
    
SHEF ID:       WATO2     North Canadian River blw Weavers
STATION TYPE:  
Regulating: Stage =    13.00, Flow =      983

               PRECIP     STAGE  RIV-FLOW  BAT-LOAD
                   in        ft       cfs      volt
              Ccp-Rev   Ccp-Rev   Ccp-Rev   Ccp-Rev
(US/Central)
05/22 00:00      0.00     15.20      1838     12.73
05/22 01:00      0.00     15.21      1843     12.73
05/22 02:00      0.00     15.22      1848     12.65
05/22 03:00      0.00     15.23      1853     12.65
05/22 04:00      0.00     15.25      1863     12.65
05/22 05:00      0.00     15.25      1863     12.65
05/22 06:00      0.00     15.26      1868     12.65
05/22 07:00      0.00     15.26      1868     12.57
05/22 08:00      0.00     15.27      1873     12.57
05/22 09:00      0.00     15.25      1863     12.65
05/22 10:00      0.00     15.25      1863     12.65
05/22 11:00      0.00     15.23      1853     12.73
05/22 12:00      0.00     15.20      1838     13.05
05/22 13:00      0.00     15.13      1804     13.21
05/22 14:00      0.00     15.06      1770     13.44
05/22 15:00      0.00     14.93      1708     13.37
05/22 16:00      0.00     14.77      1633     13.44
05/22 17:00      0.00     14.52      1521     13.37
05/22 18:00      0.00     14.21      1397     13.44
05/22 19:00      0.00     13.81      1249     13.29
05/22 20:00      0.00     13.36      1093     13.05
05/22 21:00      0.00     12.91       959     12.81
05/22 22:00      0.00     12.51       856     12.73
05/22 23:00      0.00     12.18       775     12.73